Disclaimer

Please do not use the information listed here in-flight or in-navigation, as they are not provided to us by the airports but are provided by volunteers, so they might be outdated.

Search


Regions


Airport information page

Radio informations:
SAO PAULO APP - 119.8 MHz

Airport informations:
Latitude: 23° 55' 30.74" S
Longitude: 046° 17' 15.00" W
Elevation: 10 feet - 3 meters
Operating hours: Remarks
Operating agency: Military
Timezone: UTC-3(-2DT)
Fuel: Jet A1, without icing nhibitor.

100/130 octane gasoline, leaded, MIL-L-5572F (GREEN)

Runway information:
17/35 - 4560 x 148 feet< - >1390 x 45 meters

Recent METARs:
SBST 181600Z 11005KT 9999 FEW040 BKN055 29/22 Q1008
SBST 181700Z 16005KT 9999 BKN038 29/22 Q1008
SBST 181700Z 16005KT 9999 BKN038 29/22 Q1008

Airport on the map: